Chama, NM

3:39 PM MDT on July 24, 2014 (GMT -0600)
San Luis Valley Regional / Bergman Field (KALS) Elev 7543 ft | 37.44 °N, 105.86 °W | Change Station

Current weather conditions updated 47 minutes ago

Clear
Clear
85 °F
Feels Like 85 °F
N
12
Wind Variable Wind from SSE

Today is forecast to be Cooler than yesterday.

Today
High -- | Low -- °F
--% Chance of Precip.
Yesterday
High -- | Low -- °F
Precip. -- in
6:05 AM 8:19 PM
Waning Crescent, 4% visible
Pressure 29.99 in
Visibility 10.0 miles
Clouds Clear
Dew Point 44 °F
Humidity 24%
Rainfall 0.00 in
Snow Depth Not available.
UV 11 out of 12
Pollen 7.40 out of 12
Air Quality Not available.
Flu Activity Not available.
METAR KALS 242052Z AUTO 15010KT 140V200 10SM CLR 29/07 A3031 RMK AO2 SLP153 T02940067 56022

More Conditions Fewer Conditions

Pressure 29.99 in
Visibility 10.0 miles
Clouds Clear
Dew Point 44 °F
Humidity 24%
Rainfall 0.00 in
Snow Depth Not available.
UV 11 out of 12
Pollen 7.40 out of 12
Air Quality Not available.
Flu Activity Not available.
METAR KALS 242052Z AUTO 15010KT 140V200 10SM CLR 29/07 A3031 RMK AO2 SLP153 T02940067 56022

More Conditions Fewer Conditions

10-Day Weather Forecast

Almanac

Astronomy

Jul. 24, 2014 Rise Set
Actual Time 6:05 AM MDT 8:19 PM MDT
Civil Twilight 5:36 AM MDT 8:48 PM MDT
Nautical Twilight 5:00 AM MDT 9:24 PM MDT
Astronomical Twilight 4:21 AM MDT 10:03 PM MDT
Moon 4:15 AM MDT 6:37 PM MDT
Length of Visible Light 15h 12m
Length of Day
14h 14m
Tomorrow will be 1m 33s shorter.
Waning Crescent, 4% of the Moon is Illuminated
Today
Waning Crescent
Jul 26
New
Aug 3
First Quarter
Aug 10
Full
Aug 17
Last Quarter

Today's Extremes

State Highs State Lows

Community

WunderPhotos

Upload Photos

1,737,133 photos uploaded!

WunderBlogs® & News

Nearby

Snow Depth

Station Depth Elevation
North Costilla 0 in 10600 ft
Tolby 0 in 10180 ft
Silver Creek Divide 0 in 9000 ft

Earthquake Activity

City Distance Mag. Time & Date
No recent earthquake activity has been reported nearby.
Minimum magnitude displayed is 2.5.

Coastal Water Temperatures

Place Temperature
No Stations Reporting

Nearby Weather Stations

Station Location Temp. Heat Index Dew Point Humidity Wind Precip. Elev Updated Type
HADS NAVAJO RIVER AT BANDED PEAK RANC CO, Chromo, CO 76 °F 74 °F - - North  at  - 0.00 in / hr 7939 ft 2:45 PM MDT MADIS
RAWS STONE LAKE NM, Dulce, NM 84 °F 82 °F 44 °F 25% SW  at  8 mph 0.00 in / hr 7385 ft 2:33 PM MDT MADIS
RAWS DULCE #2 NM, Dulce, NM 85 °F 83 °F 47 °F 27% WSW  at  5 mph 0.00 in / hr 6729 ft 2:28 PM MDT MADIS
RAWS SJF2 PAGOSA PORTABLE CO, Chromo, CO 74 °F 77 °F 52 °F 46% SW  at  3 mph 0.00 in / hr 9160 ft 2:49 PM MDT MADIS

Show More Stations Show Fewer Stations